sensor_id;sensor_type;location;lat;lon;timestamp;temperature;humidity
1880;DHT22;49285;49.002;8.390;2023-04-25T00:01:35;11.50;99.90
1880;DHT22;49285;49.002;8.390;2023-04-25T00:04:03;11.50;99.90
1880;DHT22;49285;49.002;8.390;2023-04-25T00:06:29;11.50;99.90
1880;DHT22;49285;49.002;8.390;2023-04-25T00:08:55;11.40;99.90
1880;DHT22;49285;49.002;8.390;2023-04-25T00:11:22;11.40;99.90
1880;DHT22;49285;49.002;8.390;2023-04-25T00:13:47;11.40;99.90
1880;DHT22;49285;49.002;8.390;2023-04-25T00:16:15;11.30;99.90
1880;DHT22;49285;49.002;8.390;2023-04-25T00:18:42;11.30;99.90
1880;DHT22;49285;49.002;8.390;2023-04-25T00:21:08;11.30;99.90
1880;DHT22;49285;49.002;8.390;2023-04-25T00:23:34;11.30;99.90
1880;DHT22;49285;49.002;8.390;2023-04-25T00:26:02;11.30;99.90
1880;DHT22;49285;49.002;8.390;2023-04-25T00:28:27;11.20;99.90
1880;DHT22;49285;49.002;8.390;2023-04-25T00:30:53;11.30;99.90
1880;DHT22;49285;49.002;8.390;2023-04-25T00:33:18;11.20;99.90
1880;DHT22;49285;49.002;8.390;2023-04-25T00:35:44;11.40;99.90
1880;DHT22;49285;49.002;8.390;2023-04-25T00:38:10;11.50;99.90
1880;DHT22;49285;49.002;8.390;2023-04-25T00:40:35;11.50;99.90
1880;DHT22;49285;49.002;8.390;2023-04-25T00:43:01;11.50;99.90
1880;DHT22;49285;49.002;8.390;2023-04-25T00:45:28;11.40;99.90
1880;DHT22;49285;49.002;8.390;2023-04-25T00:47:57;11.40;99.90
1880;DHT22;49285;49.002;8.390;2023-04-25T00:50:24;11.30;99.90
1880;DHT22;49285;49.002;8.390;2023-04-25T00:52:49;11.30;99.90
1880;DHT22;49285;49.002;8.390;2023-04-25T00:55:15;11.30;99.90
1880;DHT22;49285;49.002;8.390;2023-04-25T00:57:41;11.40;99.90
1880;DHT22;49285;49.002;8.390;2023-04-25T01:00:08;11.20;99.90
1880;DHT22;49285;49.002;8.390;2023-04-25T01:02:35;11.10;99.90
1880;DHT22;49285;49.002;8.390;2023-04-25T01:05:01;11.20;99.90
1880;DHT22;49285;49.002;8.390;2023-04-25T01:07:27;11.20;99.90
1880;DHT22;49285;49.002;8.390;2023-04-25T01:09:53;11.30;99.90
1880;DHT22;49285;49.002;8.390;2023-04-25T01:12:18;11.30;99.90
1880;DHT22;49285;49.002;8.390;2023-04-25T01:14:44;11.30;99.90
1880;DHT22;49285;49.002;8.390;2023-04-25T01:17:10;11.30;99.90
1880;DHT22;49285;49.002;8.390;2023-04-25T01:19:36;11.30;99.90
1880;DHT22;49285;49.002;8.390;2023-04-25T01:22:02;11.30;99.90
1880;DHT22;49285;49.002;8.390;2023-04-25T01:24:29;11.30;99.90
1880;DHT22;49285;49.002;8.390;2023-04-25T01:26:55;11.20;99.90
1880;DHT22;49285;49.002;8.390;2023-04-25T01:29:21;11.20;99.90
1880;DHT22;49285;49.002;8.390;2023-04-25T01:31:47;11.20;99.90
1880;DHT22;49285;49.002;8.390;2023-04-25T01:34:13;11.20;99.90
1880;DHT22;49285;49.002;8.390;2023-04-25T01:36:39;11.30;99.90
1880;DHT22;49285;49.002;8.390;2023-04-25T01:39:05;11.30;99.90
1880;DHT22;49285;49.002;8.390;2023-04-25T01:41:31;11.30;99.90
1880;DHT22;49285;49.002;8.390;2023-04-25T01:43:57;11.40;99.90
1880;DHT22;49285;49.002;8.390;2023-04-25T01:46:23;11.30;99.90
1880;DHT22;49285;49.002;8.390;2023-04-25T01:48:49;11.20;99.90
1880;DHT22;49285;49.002;8.390;2023-04-25T01:51:15;11.20;99.90
1880;DHT22;49285;49.002;8.390;2023-04-25T01:53:40;11.20;99.90
1880;DHT22;49285;49.002;8.390;2023-04-25T01:56:06;11.20;99.90
1880;DHT22;49285;49.002;8.390;2023-04-25T01:58:32;11.20;99.90
1880;DHT22;49285;49.002;8.390;2023-04-25T02:00:57;11.10;99.90
1880;DHT22;49285;49.002;8.390;2023-04-25T02:03:23;11.10;99.90
1880;DHT22;49285;49.002;8.390;2023-04-25T02:05:49;11.10;99.90
1880;DHT22;49285;49.002;8.390;2023-04-25T02:08:16;11.10;99.90
1880;DHT22;49285;49.002;8.390;2023-04-25T02:10:42;11.10;99.90
1880;DHT22;49285;49.002;8.390;2023-04-25T02:13:08;11.10;99.90
1880;DHT22;49285;49.002;8.390;2023-04-25T02:15:34;11.00;99.90
1880;DHT22;49285;49.002;8.390;2023-04-25T02:17:59;11.00;99.90
1880;DHT22;49285;49.002;8.390;2023-04-25T02:20:29;11.10;99.90
1880;DHT22;49285;49.002;8.390;2023-04-25T02:22:55;11.00;99.90
1880;DHT22;49285;49.002;8.390;2023-04-25T02:25:22;11.00;99.90
1880;DHT22;49285;49.002;8.390;2023-04-25T02:27:48;10.80;99.90
1880;DHT22;49285;49.002;8.390;2023-04-25T02:30:14;10.70;99.90
1880;DHT22;49285;49.002;8.390;2023-04-25T02:32:40;10.70;99.90
1880;DHT22;49285;49.002;8.390;2023-04-25T02:35:06;10.70;99.90
1880;DHT22;49285;49.002;8.390;2023-04-25T02:37:33;10.70;99.90
1880;DHT22;49285;49.002;8.390;2023-04-25T02:39:59;10.70;99.90
1880;DHT22;49285;49.002;8.390;2023-04-25T02:42:25;10.70;99.90
1880;DHT22;49285;49.002;8.390;2023-04-25T02:44:51;10.60;99.90
1880;DHT22;49285;49.002;8.390;2023-04-25T02:47:16;10.70;99.90
1880;DHT22;49285;49.002;8.390;2023-04-25T02:49:42;10.70;99.90
1880;DHT22;49285;49.002;8.390;2023-04-25T02:52:08;10.70;99.90
1880;DHT22;49285;49.002;8.390;2023-04-25T02:54:34;10.80;99.90
1880;DHT22;49285;49.002;8.390;2023-04-25T02:56:59;10.80;99.90
1880;DHT22;49285;49.002;8.390;2023-04-25T02:59:27;10.80;99.90
1880;DHT22;49285;49.002;8.390;2023-04-25T03:01:53;10.90;99.90
1880;DHT22;49285;49.002;8.390;2023-04-25T03:04:18;10.90;99.90
1880;DHT22;49285;49.002;8.390;2023-04-25T03:06:44;10.90;99.90
1880;DHT22;49285;49.002;8.390;2023-04-25T03:09:10;10.90;99.90
1880;DHT22;49285;49.002;8.390;2023-04-25T03:11:38;10.90;99.90
1880;DHT22;49285;49.002;8.390;2023-04-25T03:14:03;10.80;99.90
1880;DHT22;49285;49.002;8.390;2023-04-25T03:16:29;10.80;99.90
1880;DHT22;49285;49.002;8.390;2023-04-25T03:18:56;10.80;99.90
1880;DHT22;49285;49.002;8.390;2023-04-25T03:21:22;10.90;99.90
1880;DHT22;49285;49.002;8.390;2023-04-25T03:23:47;11.00;99.90
1880;DHT22;49285;49.002;8.390;2023-04-25T03:26:13;10.90;99.90
1880;DHT22;49285;49.002;8.390;2023-04-25T03:28:38;10.80;99.90
1880;DHT22;49285;49.002;8.390;2023-04-25T03:31:05;10.80;99.90
1880;DHT22;49285;49.002;8.390;2023-04-25T03:33:31;10.90;99.90
1880;DHT22;49285;49.002;8.390;2023-04-25T03:35:56;10.90;99.90
1880;DHT22;49285;49.002;8.390;2023-04-25T03:38:22;10.80;99.90
1880;DHT22;49285;49.002;8.390;2023-04-25T03:40:48;10.80;99.90
1880;DHT22;49285;49.002;8.390;2023-04-25T03:43:13;10.90;99.90
1880;DHT22;49285;49.002;8.390;2023-04-25T03:45:40;10.90;99.90
1880;DHT22;49285;49.002;8.390;2023-04-25T03:48:05;10.90;99.90
1880;DHT22;49285;49.002;8.390;2023-04-25T03:50:31;10.90;99.90
1880;DHT22;49285;49.002;8.390;2023-04-25T03:52:56;10.80;99.90
1880;DHT22;49285;49.002;8.390;2023-04-25T03:55:22;10.80;99.90
1880;DHT22;49285;49.002;8.390;2023-04-25T03:57:47;10.80;99.90
1880;DHT22;49285;49.002;8.390;2023-04-25T04:00:13;10.80;99.90
1880;DHT22;49285;49.002;8.390;2023-04-25T04:02:39;10.90;99.90
1880;DHT22;49285;49.002;8.390;2023-04-25T04:05:05;10.90;99.90
1880;DHT22;49285;49.002;8.390;2023-04-25T04:07:31;10.80;99.90
1880;DHT22;49285;49.002;8.390;2023-04-25T04:09:58;10.80;99.90
1880;DHT22;49285;49.002;8.390;2023-04-25T04:12:24;10.80;99.90
1880;DHT22;49285;49.002;8.390;2023-04-25T04:14:50;10.80;99.90
1880;DHT22;49285;49.002;8.390;2023-04-25T04:17:15;10.80;99.90
1880;DHT22;49285;49.002;8.390;2023-04-25T04:19:41;10.80;99.90
1880;DHT22;49285;49.002;8.390;2023-04-25T04:22:06;10.80;99.90
1880;DHT22;49285;49.002;8.390;2023-04-25T04:24:32;10.80;99.90
1880;DHT22;49285;49.002;8.390;2023-04-25T04:26:58;10.80;99.90
1880;DHT22;49285;49.002;8.390;2023-04-25T04:29:24;10.80;99.90
1880;DHT22;49285;49.002;8.390;2023-04-25T04:31:50;10.80;99.90
1880;DHT22;49285;49.002;8.390;2023-04-25T04:34:18;10.80;99.90
1880;DHT22;49285;49.002;8.390;2023-04-25T04:36:47;10.80;99.90
1880;DHT22;49285;49.002;8.390;2023-04-25T04:39:13;10.80;99.90
1880;DHT22;49285;49.002;8.390;2023-04-25T04:41:39;10.80;99.90
1880;DHT22;49285;49.002;8.390;2023-04-25T04:44:05;10.90;99.90
1880;DHT22;49285;49.002;8.390;2023-04-25T04:46:32;10.90;99.90
1880;DHT22;49285;49.002;8.390;2023-04-25T04:49:06;10.90;99.90
1880;DHT22;49285;49.002;8.390;2023-04-25T04:51:32;11.00;99.90
1880;DHT22;49285;49.002;8.390;2023-04-25T04:53:58;10.80;99.90
1880;DHT22;49285;49.002;8.390;2023-04-25T04:56:28;10.80;99.90
1880;DHT22;49285;49.002;8.390;2023-04-25T04:58:54;10.90;99.90
1880;DHT22;49285;49.002;8.390;2023-04-25T05:01:20;10.90;99.90
1880;DHT22;49285;49.002;8.390;2023-04-25T05:03:45;10.90;99.90
1880;DHT22;49285;49.002;8.390;2023-04-25T05:06:11;10.90;99.90
1880;DHT22;49285;49.002;8.390;2023-04-25T05:08:37;10.80;99.90
1880;DHT22;49285;49.002;8.390;2023-04-25T05:11:02;11.00;99.90
1880;DHT22;49285;49.002;8.390;2023-04-25T05:13:28;11.00;99.90
1880;DHT22;49285;49.002;8.390;2023-04-25T05:15:53;11.00;99.90
1880;DHT22;49285;49.002;8.390;2023-04-25T05:18:19;11.00;99.90
1880;DHT22;49285;49.002;8.390;2023-04-25T05:20:45;11.00;99.90
1880;DHT22;49285;49.002;8.390;2023-04-25T05:23:10;11.00;99.90
1880;DHT22;49285;49.002;8.390;2023-04-25T05:25:36;11.10;99.90
1880;DHT22;49285;49.002;8.390;2023-04-25T05:28:01;11.00;99.90
1880;DHT22;49285;49.002;8.390;2023-04-25T05:30:27;11.00;99.90
1880;DHT22;49285;49.002;8.390;2023-04-25T05:32:53;11.00;99.90
1880;DHT22;49285;49.002;8.390;2023-04-25T05:35:18;11.00;99.90
1880;DHT22;49285;49.002;8.390;2023-04-25T05:37:44;11.00;99.90
1880;DHT22;49285;49.002;8.390;2023-04-25T05:40:10;11.10;99.90
1880;DHT22;49285;49.002;8.390;2023-04-25T05:42:36;11.30;99.90
1880;DHT22;49285;49.002;8.390;2023-04-25T05:45:01;11.30;99.90
1880;DHT22;49285;49.002;8.390;2023-04-25T05:47:27;11.40;99.90
1880;DHT22;49285;49.002;8.390;2023-04-25T05:49:53;11.40;99.90
1880;DHT22;49285;49.002;8.390;2023-04-25T05:52:18;11.30;99.90
1880;DHT22;49285;49.002;8.390;2023-04-25T05:54:44;11.40;99.90
1880;DHT22;49285;49.002;8.390;2023-04-25T05:57:22;11.40;99.90
1880;DHT22;49285;49.002;8.390;2023-04-25T05:59:47;11.30;99.90
1880;DHT22;49285;49.002;8.390;2023-04-25T06:02:13;11.30;99.90
1880;DHT22;49285;49.002;8.390;2023-04-25T06:04:38;11.40;99.90
1880;DHT22;49285;49.002;8.390;2023-04-25T06:07:04;11.30;99.90
1880;DHT22;49285;49.002;8.390;2023-04-25T06:09:30;11.40;99.90
1880;DHT22;49285;49.002;8.390;2023-04-25T06:11:55;11.40;99.90
1880;DHT22;49285;49.002;8.390;2023-04-25T06:14:21;11.30;99.90
1880;DHT22;49285;49.002;8.390;2023-04-25T06:16:46;11.30;99.90
1880;DHT22;49285;49.002;8.390;2023-04-25T06:19:12;11.40;99.90
1880;DHT22;49285;49.002;8.390;2023-04-25T06:21:37;11.40;99.90
1880;DHT22;49285;49.002;8.390;2023-04-25T06:24:03;11.40;99.90
1880;DHT22;49285;49.002;8.390;2023-04-25T06:26:29;11.20;99.90
1880;DHT22;49285;49.002;8.390;2023-04-25T06:28:54;11.30;99.90
1880;DHT22;49285;49.002;8.390;2023-04-25T06:31:20;11.30;99.90
1880;DHT22;49285;49.002;8.390;2023-04-25T06:33:45;11.20;99.90
1880;DHT22;49285;49.002;8.390;2023-04-25T06:36:11;11.10;99.90
1880;DHT22;49285;49.002;8.390;2023-04-25T06:38:37;10.90;99.90
1880;DHT22;49285;49.002;8.390;2023-04-25T06:41:02;11.00;99.90
1880;DHT22;49285;49.002;8.390;2023-04-25T06:43:28;11.00;99.90
1880;DHT22;49285;49.002;8.390;2023-04-25T06:45:54;11.00;99.90
1880;DHT22;49285;49.002;8.390;2023-04-25T06:48:19;11.20;99.90
1880;DHT22;49285;49.002;8.390;2023-04-25T06:50:45;11.20;99.90
1880;DHT22;49285;49.002;8.390;2023-04-25T06:53:10;11.10;99.90
1880;DHT22;49285;49.002;8.390;2023-04-25T06:55:38;11.10;99.90
1880;DHT22;49285;49.002;8.390;2023-04-25T06:58:03;11.10;99.90
1880;DHT22;49285;49.002;8.390;2023-04-25T07:00:29;11.00;99.90
1880;DHT22;49285;49.002;8.390;2023-04-25T07:02:55;11.10;99.90
1880;DHT22;49285;49.002;8.390;2023-04-25T07:05:21;11.10;99.90
1880;DHT22;49285;49.002;8.390;2023-04-25T07:07:46;11.20;99.90
1880;DHT22;49285;49.002;8.390;2023-04-25T07:10:12;11.20;99.90
1880;DHT22;49285;49.002;8.390;2023-04-25T07:12:37;11.20;99.90
1880;DHT22;49285;49.002;8.390;2023-04-25T07:15:03;11.10;99.90
1880;DHT22;49285;49.002;8.390;2023-04-25T07:17:31;11.10;99.90
1880;DHT22;49285;49.002;8.390;2023-04-25T07:19:57;11.10;99.90
1880;DHT22;49285;49.002;8.390;2023-04-25T07:22:23;11.10;99.90
1880;DHT22;49285;49.002;8.390;2023-04-25T07:24:49;11.20;99.90
1880;DHT22;49285;49.002;8.390;2023-04-25T07:27:15;11.20;99.90
1880;DHT22;49285;49.002;8.390;2023-04-25T07:29:41;11.00;99.90
1880;DHT22;49285;49.002;8.390;2023-04-25T07:32:07;11.00;99.90
1880;DHT22;49285;49.002;8.390;2023-04-25T07:34:33;11.10;99.90
1880;DHT22;49285;49.002;8.390;2023-04-25T07:37:02;11.20;99.90
1880;DHT22;49285;49.002;8.390;2023-04-25T07:39:28;11.20;99.90
1880;DHT22;49285;49.002;8.390;2023-04-25T07:41:53;11.10;99.90
1880;DHT22;49285;49.002;8.390;2023-04-25T07:44:20;11.10;99.90
1880;DHT22;49285;49.002;8.390;2023-04-25T07:46:45;11.10;99.90
1880;DHT22;49285;49.002;8.390;2023-04-25T07:49:11;11.10;99.90
1880;DHT22;49285;49.002;8.390;2023-04-25T07:51:36;11.10;99.90
1880;DHT22;49285;49.002;8.390;2023-04-25T07:54:02;10.90;99.90
1880;DHT22;49285;49.002;8.390;2023-04-25T07:56:28;10.80;99.90
1880;DHT22;49285;49.002;8.390;2023-04-25T07:58:53;10.70;99.90
1880;DHT22;49285;49.002;8.390;2023-04-25T08:01:19;10.90;99.90
1880;DHT22;49285;49.002;8.390;2023-04-25T08:03:46;10.80;99.90
1880;DHT22;49285;49.002;8.390;2023-04-25T08:06:12;10.90;99.90
1880;DHT22;49285;49.002;8.390;2023-04-25T08:08:37;10.90;99.90
1880;DHT22;49285;49.002;8.390;2023-04-25T08:11:03;10.90;99.90
1880;DHT22;49285;49.002;8.390;2023-04-25T08:13:29;11.10;99.90
1880;DHT22;49285;49.002;8.390;2023-04-25T08:15:54;11.20;99.90
1880;DHT22;49285;49.002;8.390;2023-04-25T08:18:20;11.20;99.90
1880;DHT22;49285;49.002;8.390;2023-04-25T08:20:45;11.10;99.90
1880;DHT22;49285;49.002;8.390;2023-04-25T08:23:11;11.10;99.90
1880;DHT22;49285;49.002;8.390;2023-04-25T08:25:36;11.20;99.90
1880;DHT22;49285;49.002;8.390;2023-04-25T08:28:02;11.20;99.90
1880;DHT22;49285;49.002;8.390;2023-04-25T08:30:28;11.20;99.90
1880;DHT22;49285;49.002;8.390;2023-04-25T08:32:54;11.10;99.90
1880;DHT22;49285;49.002;8.390;2023-04-25T08:35:20;11.00;99.90
1880;DHT22;49285;49.002;8.390;2023-04-25T08:37:46;10.90;99.90
1880;DHT22;49285;49.002;8.390;2023-04-25T08:40:14;11.00;99.90
1880;DHT22;49285;49.002;8.390;2023-04-25T08:42:41;11.10;99.90
1880;DHT22;49285;49.002;8.390;2023-04-25T08:45:08;10.90;99.90
1880;DHT22;49285;49.002;8.390;2023-04-25T08:47:34;11.00;99.90
1880;DHT22;49285;49.002;8.390;2023-04-25T08:50:02;11.00;99.90
1880;DHT22;49285;49.002;8.390;2023-04-25T08:52:32;11.20;99.90
1880;DHT22;49285;49.002;8.390;2023-04-25T08:55:01;11.20;99.90
1880;DHT22;49285;49.002;8.390;2023-04-25T08:57:27;11.10;99.90
1880;DHT22;49285;49.002;8.390;2023-04-25T08:59:54;11.20;99.90
1880;DHT22;49285;49.002;8.390;2023-04-25T09:02:20;11.20;99.90
1880;DHT22;49285;49.002;8.390;2023-04-25T09:04:47;11.20;99.90
1880;DHT22;49285;49.002;8.390;2023-04-25T09:07:13;11.20;99.90
1880;DHT22;49285;49.002;8.390;2023-04-25T09:09:43;11.20;99.90
1880;DHT22;49285;49.002;8.390;2023-04-25T09:12:09;11.20;99.90
1880;DHT22;49285;49.002;8.390;2023-04-25T09:14:35;10.90;99.90
1880;DHT22;49285;49.002;8.390;2023-04-25T09:17:02;11.00;99.90
1880;DHT22;49285;49.002;8.390;2023-04-25T09:19:33;11.00;99.90
1880;DHT22;49285;49.002;8.390;2023-04-25T09:22:02;11.00;99.90
1880;DHT22;49285;49.002;8.390;2023-04-25T09:24:39;10.90;99.90
1880;DHT22;49285;49.002;8.390;2023-04-25T09:27:09;11.00;99.90
1880;DHT22;49285;49.002;8.390;2023-04-25T09:29:39;11.00;99.90
1880;DHT22;49285;49.002;8.390;2023-04-25T09:32:26;11.00;99.90
1880;DHT22;49285;49.002;8.390;2023-04-25T09:34:53;11.00;99.90
1880;DHT22;49285;49.002;8.390;2023-04-25T09:37:24;11.00;99.90
1880;DHT22;49285;49.002;8.390;2023-04-25T09:39:52;10.80;99.90
1880;DHT22;49285;49.002;8.390;2023-04-25T09:42:22;10.70;99.90
1880;DHT22;49285;49.002;8.390;2023-04-25T09:44:49;10.70;99.90
1880;DHT22;49285;49.002;8.390;2023-04-25T09:47:16;10.60;99.90
1880;DHT22;49285;49.002;8.390;2023-04-25T09:49:43;10.70;99.90
1880;DHT22;49285;49.002;8.390;2023-04-25T09:52:14;10.70;99.90
1880;DHT22;49285;49.002;8.390;2023-04-25T09:54:40;10.70;99.90
1880;DHT22;49285;49.002;8.390;2023-04-25T09:57:14;10.70;99.90
1880;DHT22;49285;49.002;8.390;2023-04-25T09:59:44;10.80;99.90
1880;DHT22;49285;49.002;8.390;2023-04-25T10:02:11;10.80;99.90
1880;DHT22;49285;49.002;8.390;2023-04-25T10:04:38;10.80;99.90
1880;DHT22;49285;49.002;8.390;2023-04-25T10:07:06;10.80;99.90
1880;DHT22;49285;49.002;8.390;2023-04-25T10:09:32;11.00;99.90
1880;DHT22;49285;49.002;8.390;2023-04-25T10:12:02;11.00;99.90
1880;DHT22;49285;49.002;8.390;2023-04-25T10:14:30;11.00;99.90
1880;DHT22;49285;49.002;8.390;2023-04-25T10:16:58;11.10;99.90
1880;DHT22;49285;49.002;8.390;2023-04-25T10:19:24;11.20;99.90
1880;DHT22;49285;49.002;8.390;2023-04-25T10:22:08;11.30;99.90
1880;DHT22;49285;49.002;8.390;2023-04-25T10:24:37;11.40;99.90
1880;DHT22;49285;49.002;8.390;2023-04-25T10:27:04;11.50;99.90
1880;DHT22;49285;49.002;8.390;2023-04-25T10:29:30;11.70;99.90
1880;DHT22;49285;49.002;8.390;2023-04-25T10:31:57;11.80;99.90
1880;DHT22;49285;49.002;8.390;2023-04-25T10:34:39;11.90;99.90
1880;DHT22;49285;49.002;8.390;2023-04-25T10:37:09;12.00;99.90
1880;DHT22;49285;49.002;8.390;2023-04-25T10:39:35;12.10;99.90
1880;DHT22;49285;49.002;8.390;2023-04-25T10:42:02;12.20;99.90
1880;DHT22;49285;49.002;8.390;2023-04-25T10:44:29;12.20;99.90
1880;DHT22;49285;49.002;8.390;2023-04-25T10:46:56;12.20;99.90
1880;DHT22;49285;49.002;8.390;2023-04-25T10:52:17;12.20;99.90
1880;DHT22;49285;49.002;8.390;2023-04-25T10:54:57;12.30;99.90
1880;DHT22;49285;49.002;8.390;2023-04-25T10:59:54;12.20;99.90
1880;DHT22;49285;49.002;8.390;2023-04-25T11:02:19;12.20;99.90
1880;DHT22;49285;49.002;8.390;2023-04-25T11:04:45;12.30;99.90
1880;DHT22;49285;49.002;8.390;2023-04-25T11:07:33;12.30;99.90
1880;DHT22;49285;49.002;8.390;2023-04-25T11:10:04;12.10;99.90
1880;DHT22;49285;49.002;8.390;2023-04-25T11:12:31;12.10;99.90
1880;DHT22;49285;49.002;8.390;2023-04-25T11:15:04;12.00;99.90
1880;DHT22;49285;49.002;8.390;2023-04-25T11:17:30;11.90;99.90
1880;DHT22;49285;49.002;8.390;2023-04-25T11:19:56;11.60;99.90
1880;DHT22;49285;49.002;8.390;2023-04-25T11:22:23;11.60;99.90
1880;DHT22;49285;49.002;8.390;2023-04-25T11:24:48;11.50;99.90
1880;DHT22;49285;49.002;8.390;2023-04-25T11:27:14;11.50;99.90
1880;DHT22;49285;49.002;8.390;2023-04-25T11:29:40;11.50;99.90
1880;DHT22;49285;49.002;8.390;2023-04-25T11:32:06;11.40;99.90
1880;DHT22;49285;49.002;8.390;2023-04-25T11:34:33;11.40;99.90
1880;DHT22;49285;49.002;8.390;2023-04-25T11:37:00;11.30;99.90
1880;DHT22;49285;49.002;8.390;2023-04-25T11:39:26;11.30;99.90
1880;DHT22;49285;49.002;8.390;2023-04-25T11:41:52;11.40;99.90
1880;DHT22;49285;49.002;8.390;2023-04-25T11:44:19;11.40;99.90
1880;DHT22;49285;49.002;8.390;2023-04-25T11:46:46;11.50;99.90
1880;DHT22;49285;49.002;8.390;2023-04-25T11:49:12;11.60;99.90
1880;DHT22;49285;49.002;8.390;2023-04-25T11:51:42;11.60;99.90
1880;DHT22;49285;49.002;8.390;2023-04-25T11:54:08;11.60;99.90
1880;DHT22;49285;49.002;8.390;2023-04-25T11:56:34;11.50;99.90
1880;DHT22;49285;49.002;8.390;2023-04-25T11:59:04;11.60;99.90
1880;DHT22;49285;49.002;8.390;2023-04-25T12:01:41;11.60;99.90
1880;DHT22;49285;49.002;8.390;2023-04-25T12:06:40;11.40;99.90
1880;DHT22;49285;49.002;8.390;2023-04-25T12:09:10;11.40;99.90
1880;DHT22;49285;49.002;8.390;2023-04-25T12:11:43;11.40;99.90
1880;DHT22;49285;49.002;8.390;2023-04-25T12:14:09;11.50;99.90
1880;DHT22;49285;49.002;8.390;2023-04-25T12:16:45;11.60;99.90
1880;DHT22;49285;49.002;8.390;2023-04-25T12:19:15;11.80;99.90
1880;DHT22;49285;49.002;8.390;2023-04-25T12:21:42;11.90;99.90
1880;DHT22;49285;49.002;8.390;2023-04-25T12:24:21;11.80;99.90
1880;DHT22;49285;49.002;8.390;2023-04-25T12:29:23;12.30;99.90
1880;DHT22;49285;49.002;8.390;2023-04-25T12:31:50;12.60;99.90
1880;DHT22;49285;49.002;8.390;2023-04-25T12:34:18;12.80;99.90
1880;DHT22;49285;49.002;8.390;2023-04-25T12:36:44;12.80;99.90
1880;DHT22;49285;49.002;8.390;2023-04-25T12:39:17;13.10;99.90
1880;DHT22;49285;49.002;8.390;2023-04-25T12:41:44;13.30;99.90
1880;DHT22;49285;49.002;8.390;2023-04-25T12:44:10;13.60;99.90
1880;DHT22;49285;49.002;8.390;2023-04-25T12:46:37;13.70;99.90
1880;DHT22;49285;49.002;8.390;2023-04-25T12:49:03;13.80;99.90
1880;DHT22;49285;49.002;8.390;2023-04-25T12:51:29;13.80;99.90
1880;DHT22;49285;49.002;8.390;2023-04-25T12:53:55;13.80;99.90
1880;DHT22;49285;49.002;8.390;2023-04-25T12:56:21;13.70;99.90
1880;DHT22;49285;49.002;8.390;2023-04-25T12:58:46;13.60;99.90
1880;DHT22;49285;49.002;8.390;2023-04-25T13:01:14;13.60;99.90
1880;DHT22;49285;49.002;8.390;2023-04-25T13:03:40;13.70;99.90
1880;DHT22;49285;49.002;8.390;2023-04-25T13:06:06;13.60;99.90
1880;DHT22;49285;49.002;8.390;2023-04-25T13:08:32;13.50;99.90
1880;DHT22;49285;49.002;8.390;2023-04-25T13:10:58;13.70;99.90
1880;DHT22;49285;49.002;8.390;2023-04-25T13:13:23;13.90;99.90
1880;DHT22;49285;49.002;8.390;2023-04-25T13:15:49;14.10;99.90
1880;DHT22;49285;49.002;8.390;2023-04-25T13:18:15;13.60;99.90
1880;DHT22;49285;49.002;8.390;2023-04-25T13:20:41;13.90;99.90
1880;DHT22;49285;49.002;8.390;2023-04-25T13:23:06;14.10;99.90
1880;DHT22;49285;49.002;8.390;2023-04-25T13:25:32;14.20;99.90
1880;DHT22;49285;49.002;8.390;2023-04-25T13:27:58;14.00;99.90
1880;DHT22;49285;49.002;8.390;2023-04-25T13:30:23;13.80;99.90
1880;DHT22;49285;49.002;8.390;2023-04-25T13:32:49;13.90;99.90
1880;DHT22;49285;49.002;8.390;2023-04-25T13:35:16;14.20;99.90
1880;DHT22;49285;49.002;8.390;2023-04-25T13:37:42;15.80;99.90
1880;DHT22;49285;49.002;8.390;2023-04-25T13:40:10;16.50;99.90
1880;DHT22;49285;49.002;8.390;2023-04-25T13:42:39;17.10;99.90
1880;DHT22;49285;49.002;8.390;2023-04-25T13:45:06;17.00;99.90
1880;DHT22;49285;49.002;8.390;2023-04-25T13:47:31;17.20;99.90
1880;DHT22;49285;49.002;8.390;2023-04-25T13:49:57;17.40;99.90
1880;DHT22;49285;49.002;8.390;2023-04-25T13:52:23;18.00;99.90
1880;DHT22;49285;49.002;8.390;2023-04-25T13:54:49;18.10;99.90
1880;DHT22;49285;49.002;8.390;2023-04-25T13:57:16;17.90;99.90
1880;DHT22;49285;49.002;8.390;2023-04-25T13:59:42;17.60;99.90
1880;DHT22;49285;49.002;8.390;2023-04-25T14:02:07;17.50;99.90
1880;DHT22;49285;49.002;8.390;2023-04-25T14:04:33;17.70;99.90
1880;DHT22;49285;49.002;8.390;2023-04-25T14:06:59;18.00;99.90
1880;DHT22;49285;49.002;8.390;2023-04-25T14:09:25;18.30;99.90
1880;DHT22;49285;49.002;8.390;2023-04-25T14:11:52;18.10;99.90
1880;DHT22;49285;49.002;8.390;2023-04-25T14:14:19;18.00;99.90
1880;DHT22;49285;49.002;8.390;2023-04-25T14:16:45;17.70;99.90
1880;DHT22;49285;49.002;8.390;2023-04-25T14:19:16;17.70;99.90
1880;DHT22;49285;49.002;8.390;2023-04-25T14:21:43;17.70;99.90
1880;DHT22;49285;49.002;8.390;2023-04-25T14:24:09;17.60;99.90
1880;DHT22;49285;49.002;8.390;2023-04-25T14:26:36;17.50;99.90
1880;DHT22;49285;49.002;8.390;2023-04-25T14:29:03;17.20;99.90
1880;DHT22;49285;49.002;8.390;2023-04-25T14:31:29;16.80;99.90
1880;DHT22;49285;49.002;8.390;2023-04-25T14:33:54;16.50;99.90
1880;DHT22;49285;49.002;8.390;2023-04-25T14:36:20;16.60;99.90
1880;DHT22;49285;49.002;8.390;2023-04-25T14:38:46;17.10;99.90
1880;DHT22;49285;49.002;8.390;2023-04-25T14:41:12;17.20;99.90
1880;DHT22;49285;49.002;8.390;2023-04-25T14:43:37;17.20;99.90
1880;DHT22;49285;49.002;8.390;2023-04-25T14:46:05;17.00;99.90
1880;DHT22;49285;49.002;8.390;2023-04-25T14:48:32;16.80;99.90
1880;DHT22;49285;49.002;8.390;2023-04-25T14:50:57;16.60;99.90
1880;DHT22;49285;49.002;8.390;2023-04-25T14:53:23;16.30;99.90
1880;DHT22;49285;49.002;8.390;2023-04-25T14:55:49;15.90;99.90
1880;DHT22;49285;49.002;8.390;2023-04-25T14:58:15;15.70;99.90
1880;DHT22;49285;49.002;8.390;2023-04-25T15:00:41;15.70;99.90
1880;DHT22;49285;49.002;8.390;2023-04-25T15:03:06;15.60;99.90
1880;DHT22;49285;49.002;8.390;2023-04-25T15:05:33;15.50;99.90
1880;DHT22;49285;49.002;8.390;2023-04-25T15:07:59;15.30;99.90
1880;DHT22;49285;49.002;8.390;2023-04-25T15:10:25;15.10;99.90
1880;DHT22;49285;49.002;8.390;2023-04-25T15:12:51;15.10;99.90
1880;DHT22;49285;49.002;8.390;2023-04-25T15:15:18;15.00;99.90
1880;DHT22;49285;49.002;8.390;2023-04-25T15:17:44;14.80;99.90
1880;DHT22;49285;49.002;8.390;2023-04-25T15:20:12;14.50;99.90
1880;DHT22;49285;49.002;8.390;2023-04-25T15:22:39;14.50;99.90
1880;DHT22;49285;49.002;8.390;2023-04-25T15:25:06;14.50;99.90
1880;DHT22;49285;49.002;8.390;2023-04-25T15:27:33;14.40;99.90
1880;DHT22;49285;49.002;8.390;2023-04-25T15:29:59;14.20;99.90
1880;DHT22;49285;49.002;8.390;2023-04-25T15:32:25;14.10;99.90
1880;DHT22;49285;49.002;8.390;2023-04-25T15:34:51;14.00;99.90
1880;DHT22;49285;49.002;8.390;2023-04-25T15:37:17;13.80;99.90
1880;DHT22;49285;49.002;8.390;2023-04-25T15:39:43;13.80;99.90
1880;DHT22;49285;49.002;8.390;2023-04-25T15:42:09;13.50;99.90
1880;DHT22;49285;49.002;8.390;2023-04-25T15:44:35;13.20;99.90
1880;DHT22;49285;49.002;8.390;2023-04-25T15:47:00;13.00;99.90
1880;DHT22;49285;49.002;8.390;2023-04-25T15:49:26;12.60;99.90
1880;DHT22;49285;49.002;8.390;2023-04-25T15:51:53;12.60;99.90